createdAt,value
2023-03-17T06:53:18.883Z,12.98
2023-03-17T06:55:47.064Z,13.38
2023-03-17T06:58:15.997Z,12.10
2023-03-17T07:00:47.189Z,11.82
2023-03-17T07:03:15.971Z,11.12
2023-03-17T07:05:43.620Z,12.70
2023-03-17T07:08:11.561Z,14.75
2023-03-17T07:10:41.951Z,11.88
2023-03-17T07:13:10.241Z,11.65
2023-03-17T07:15:38.359Z,15.95
2023-03-17T07:18:07.031Z,12.90
2023-03-17T07:20:34.516Z,11.88
2023-03-17T07:23:02.029Z,14.18
2023-03-17T07:25:29.914Z,14.80
2023-03-17T07:27:58.520Z,14.32
2023-03-17T07:30:26.552Z,12.05
2023-03-17T07:32:55.311Z,13.60
2023-03-17T07:35:23.396Z,15.02
2023-03-17T07:37:50.931Z,10.05
2023-03-17T07:40:18.912Z,11.80
2023-03-17T07:42:46.361Z,14.00
2023-03-17T07:45:14.034Z,10.07
2023-03-17T07:47:41.890Z,13.45
2023-03-17T07:50:10.812Z,11.60
2023-03-17T07:52:38.333Z,10.15
2023-03-17T07:55:10.523Z,9.93
2023-03-17T07:57:38.747Z,10.93
2023-03-17T08:00:10.970Z,8.93
2023-03-17T08:02:39.178Z,7.20
2023-03-17T08:05:10.500Z,9.63
2023-03-17T08:07:38.388Z,7.07
2023-03-17T08:10:07.484Z,8.95
2023-03-17T08:12:36.547Z,8.98
2023-03-17T08:15:04.268Z,11.10
2023-03-17T08:17:31.913Z,11.80
2023-03-17T08:19:59.625Z,7.35
2023-03-17T08:22:27.759Z,8.13
2023-03-17T08:24:55.764Z,10.80
2023-03-17T08:27:23.497Z,10.32
2023-03-17T08:29:51.274Z,8.07
2023-03-17T08:32:18.886Z,7.78
2023-03-17T08:34:48.429Z,14.68
2023-03-17T08:37:16.009Z,8.88
2023-03-17T08:39:45.060Z,7.95
2023-03-17T08:42:12.907Z,9.10
2023-03-17T08:52:06.134Z,10.32
2023-03-17T08:54:34.951Z,8.05
2023-03-17T08:57:02.765Z,8.00
2023-03-17T08:59:30.310Z,8.48
2023-03-17T09:01:58.009Z,8.50
2023-03-17T09:04:26.658Z,8.15
2023-03-17T09:07:03.271Z,6.25
2023-03-17T09:09:35.324Z,7.97
2023-03-17T09:12:06.345Z,7.15
2023-03-17T09:14:42.870Z,6.93
2023-03-17T09:17:11.266Z,5.03
2023-03-17T09:19:38.947Z,6.12
2023-03-17T09:22:06.881Z,7.07
2023-03-17T09:24:34.461Z,7.78
2023-03-17T09:27:02.189Z,4.93
2023-03-17T09:29:29.600Z,6.22
2023-03-17T09:31:57.252Z,7.22
2023-03-17T09:34:25.226Z,7.00
2023-03-17T09:36:55.964Z,6.75
2023-03-17T09:39:24.210Z,8.25
2023-03-17T09:42:14.587Z,7.75
2023-03-17T09:44:57.041Z,5.47
2023-03-17T09:47:42.294Z,6.60
2023-03-17T09:50:17.589Z,6.32
2023-03-17T09:52:46.134Z,6.15
2023-03-17T09:55:32.747Z,7.68
2023-03-17T09:58:01.101Z,6.85
2023-03-17T10:00:31.151Z,6.65
2023-03-17T10:02:59.831Z,6.68
2023-03-17T10:05:32.435Z,7.35
2023-03-17T10:10:49.976Z,7.15
2023-03-17T10:13:44.618Z,7.30
2023-03-17T10:16:14.631Z,8.35
2023-03-17T10:18:48.203Z,7.60
2023-03-17T10:21:24.314Z,5.78
2023-03-17T10:23:55.442Z,8.38
2023-03-17T10:26:27.194Z,7.15
2023-03-17T10:28:55.874Z,6.60
2023-03-17T10:31:35.437Z,6.43
2023-03-17T10:34:39.665Z,7.72
2023-03-17T10:37:16.329Z,7.10
2023-03-17T10:39:49.126Z,9.10
2023-03-17T10:42:24.512Z,6.25
2023-03-17T10:44:56.451Z,5.62
2023-03-17T10:47:25.277Z,5.68
2023-03-17T11:04:55.113Z,5.90
2023-03-17T11:07:36.467Z,5.37
2023-03-17T11:10:14.838Z,5.60
2023-03-17T11:12:43.038Z,8.45
2023-03-17T11:15:14.255Z,8.45
2023-03-17T11:25:27.213Z,7.45
2023-03-17T11:28:16.363Z,6.10
2023-03-17T11:31:13.034Z,5.50
2023-03-17T11:34:02.982Z,8.60
2023-03-17T11:36:45.370Z,5.82
2023-03-17T11:39:17.192Z,10.02
2023-03-17T11:42:01.674Z,8.15
2023-03-17T11:44:29.340Z,9.70
2023-03-17T11:47:06.590Z,9.27
2023-03-17T11:49:38.929Z,7.68
2023-03-17T11:52:29.321Z,10.05
2023-03-17T11:55:16.477Z,7.62
2023-03-17T11:57:51.841Z,7.05
2023-03-17T12:03:00.230Z,7.40
2023-03-17T12:05:30.072Z,6.80
2023-03-17T12:07:59.802Z,7.60
2023-03-17T12:10:36.421Z,7.40
2023-03-17T12:13:09.897Z,5.85
2023-03-17T12:20:58.584Z,7.32
2023-03-17T12:26:09.193Z,6.12
2023-03-17T12:28:57.686Z,7.93
2023-03-17T12:31:28.998Z,7.68
2023-03-17T12:34:07.991Z,9.98
2023-03-17T12:36:39.416Z,8.57
2023-03-17T12:39:10.346Z,7.99
2023-03-17T12:42:01.646Z,9.57
2023-03-17T12:44:44.725Z,6.93
2023-03-17T12:47:33.493Z,7.46
2023-03-17T12:50:10.865Z,8.70
2023-03-17T12:53:31.614Z,7.07
2023-03-17T12:56:21.993Z,6.65
2023-03-17T12:58:51.121Z,7.65
2023-03-17T13:01:39.402Z,7.72
2023-03-17T13:04:12.874Z,8.48
2023-03-17T13:07:02.510Z,7.32
2023-03-17T13:09:32.959Z,6.55
2023-03-17T13:12:02.285Z,7.75
2023-03-17T17:53:15.897Z,30.70
2023-03-17T17:55:45.758Z,26.23
2023-03-17T17:58:20.862Z,30.85
2023-03-17T18:00:51.019Z,31.62
2023-03-17T18:03:25.125Z,34.72
2023-03-17T18:05:54.725Z,36.63
2023-03-17T18:08:24.524Z,40.20
2023-03-17T18:10:52.925Z,41.97
2023-03-17T18:13:21.773Z,39.45
2023-03-17T18:15:50.752Z,43.67
2023-03-17T18:18:19.126Z,38.72
2023-03-17T18:20:48.108Z,36.78
2023-03-17T18:23:19.058Z,45.12
2023-03-17T18:25:47.713Z,48.00
2023-03-17T18:28:16.816Z,41.40
2023-03-17T18:30:47.119Z,29.10
2023-03-17T18:33:18.122Z,20.52
2023-03-17T18:35:49.775Z,27.65
2023-03-17T18:38:18.797Z,31.05
2023-03-17T18:40:48.064Z,24.73
2023-03-17T18:43:16.891Z,27.50
2023-03-17T18:45:45.879Z,29.63
2023-03-17T18:48:16.818Z,30.33
2023-03-17T18:50:47.027Z,50.42
2023-03-17T18:53:17.364Z,38.50
2023-03-17T18:55:46.289Z,30.25
2023-03-17T18:58:14.838Z,49.10
2023-03-17T19:00:44.919Z,38.55
2023-03-17T19:03:13.234Z,38.90
2023-03-17T19:05:41.944Z,35.60
2023-03-17T19:08:13.053Z,48.95
2023-03-17T19:10:44.528Z,35.72
2023-03-17T19:13:14.841Z,32.80
2023-03-17T19:15:43.435Z,29.83
2023-03-17T19:18:12.161Z,30.98
2023-03-17T19:20:41.030Z,28.77
2023-03-17T19:23:10.062Z,26.80
2023-03-17T19:25:39.528Z,27.33
2023-03-17T19:28:11.579Z,27.35
2023-03-17T19:30:41.169Z,26.67
2023-03-17T19:33:11.858Z,27.55
2023-03-17T19:35:41.701Z,26.55
2023-03-17T19:38:13.570Z,31.20
2023-03-17T19:40:42.606Z,36.95
2023-03-17T19:43:12.393Z,34.42
2023-03-17T19:45:41.178Z,44.22
2023-03-17T19:48:11.906Z,42.65
2023-03-17T19:50:42.174Z,41.63
2023-03-17T19:53:11.368Z,38.45
2023-03-17T19:55:40.290Z,43.60
2023-03-17T19:58:12.945Z,32.22
2023-03-17T20:00:44.770Z,30.98
2023-03-17T20:03:15.555Z,28.65
2023-03-17T20:05:46.003Z,29.63
2023-03-17T20:08:16.668Z,24.90
2023-03-17T20:10:45.860Z,36.15
2023-03-17T20:13:17.529Z,39.38
2023-03-17T20:15:46.580Z,28.87
2023-03-17T20:18:15.188Z,32.85
2023-03-17T20:20:47.970Z,32.65
2023-03-17T20:23:18.028Z,34.87
2023-03-17T20:25:47.411Z,39.65
2023-03-17T20:28:18.293Z,47.83
2023-03-17T20:30:48.625Z,49.43
2023-03-17T20:33:19.287Z,46.60
2023-03-17T20:35:47.604Z,44.92
2023-03-17T20:38:16.375Z,46.35
2023-03-17T20:40:44.857Z,38.92
2023-03-17T20:43:14.855Z,35.17
2023-03-17T20:45:43.914Z,31.15
2023-03-17T20:48:12.818Z,28.92
2023-03-17T20:50:43.977Z,25.25
2023-03-17T20:53:12.708Z,21.80
2023-03-17T20:55:43.157Z,20.65
2023-03-17T20:58:12.083Z,21.95
2023-03-17T21:00:40.905Z,21.25
2023-03-17T21:03:10.466Z,22.17
2023-03-17T21:05:40.996Z,26.58
2023-03-17T21:08:09.369Z,26.77
2023-03-17T21:10:38.158Z,19.30
2023-03-17T21:13:06.917Z,18.70
2023-03-17T21:15:36.315Z,22.40
2023-03-17T21:18:04.294Z,18.45
2023-03-17T21:20:32.793Z,19.00
2023-03-17T21:23:04.943Z,17.80
2023-03-17T21:25:33.602Z,20.12
2023-03-17T21:28:01.655Z,20.42
2023-03-17T21:30:30.910Z,18.52
2023-03-17T21:33:01.086Z,19.48
2023-03-17T21:35:30.898Z,18.50
2023-03-17T21:37:58.813Z,18.35
2023-03-17T21:40:26.605Z,17.30
2023-03-17T21:42:55.674Z,18.23
2023-03-17T21:45:23.301Z,17.42
2023-03-17T21:47:50.863Z,18.12
2023-03-17T21:50:20.170Z,17.75
2023-03-17T21:52:48.996Z,21.02
2023-03-17T21:55:16.694Z,22.47
2023-03-17T21:57:44.464Z,21.62
2023-03-17T22:00:12.784Z,23.27
2023-03-17T22:02:41.931Z,22.90
2023-03-17T22:05:10.542Z,22.40
2023-03-17T22:07:38.729Z,19.70
2023-03-17T22:10:07.421Z,17.93
2023-03-17T22:12:35.764Z,18.93
2023-03-17T22:15:04.398Z,18.75
2023-03-17T22:17:32.593Z,19.37
2023-03-17T22:20:00.047Z,17.80
2023-03-17T22:22:27.546Z,18.37
2023-03-17T22:24:56.388Z,15.70
2023-03-17T22:27:23.785Z,19.75
2023-03-17T22:29:51.280Z,19.87
2023-03-17T22:32:18.957Z,19.02
2023-03-17T22:34:46.432Z,17.62
2023-03-17T22:37:13.834Z,18.60
2023-03-17T22:39:41.515Z,18.95
2023-03-17T22:42:09.477Z,19.95
2023-03-17T22:44:37.044Z,18.60
2023-03-17T22:47:06.331Z,19.58
2023-03-17T22:49:33.804Z,17.75
2023-03-17T22:52:01.312Z,19.00
2023-03-17T22:54:28.989Z,18.55
2023-03-17T22:56:56.398Z,17.80
2023-03-17T22:59:24.065Z,17.65
2023-03-17T23:01:51.817Z,19.95
2023-03-17T23:04:19.269Z,19.55
2023-03-17T23:06:46.653Z,17.50
2023-03-17T23:09:14.810Z,19.62
2023-03-17T23:11:42.824Z,18.50
2023-03-17T23:14:11.306Z,20.48
2023-03-17T23:16:39.251Z,19.37
2023-03-17T23:19:06.682Z,19.05
2023-03-17T23:21:37.627Z,17.70
2023-03-17T23:24:07.713Z,19.80
2023-03-17T23:26:36.930Z,19.47
2023-03-17T23:29:06.992Z,21.80
2023-03-17T23:31:34.981Z,20.60
2023-03-17T23:34:03.424Z,19.17
2023-03-17T23:36:31.072Z,20.65
2023-03-17T23:38:58.502Z,22.87
2023-03-17T23:41:26.048Z,21.97
2023-03-17T23:43:53.746Z,20.58
2023-03-17T23:46:21.156Z,21.50
2023-03-17T23:48:49.389Z,18.77
2023-03-17T23:51:17.865Z,20.02
2023-03-17T23:53:46.440Z,21.02
2023-03-17T23:56:13.856Z,19.33
2023-03-17T23:58:43.313Z,23.38
